sensor_id;sensor_type;location;lat;lon;timestamp;P1;durP1;ratioP1;P2;durP2;ratioP2
30533;SDS011;17318;52.390;9.754;2023-02-22T00:00:17;41.17;;;18.20;;
30533;SDS011;17318;52.390;9.754;2023-02-22T00:02:44;39.45;;;16.98;;
30533;SDS011;17318;52.390;9.754;2023-02-22T00:05:10;40.20;;;16.40;;
30533;SDS011;17318;52.390;9.754;2023-02-22T00:07:39;35.30;;;15.68;;
30533;SDS011;17318;52.390;9.754;2023-02-22T00:10:06;39.38;;;16.05;;
30533;SDS011;17318;52.390;9.754;2023-02-22T00:12:41;41.35;;;17.00;;
30533;SDS011;17318;52.390;9.754;2023-02-22T00:15:07;36.13;;;16.27;;
30533;SDS011;17318;52.390;9.754;2023-02-22T00:17:34;40.20;;;16.77;;
30533;SDS011;17318;52.390;9.754;2023-02-22T00:20:00;42.13;;;16.70;;
30533;SDS011;17318;52.390;9.754;2023-02-22T00:22:26;36.95;;;15.75;;
30533;SDS011;17318;52.390;9.754;2023-02-22T00:24:51;40.80;;;17.17;;
30533;SDS011;17318;52.390;9.754;2023-02-22T00:27:17;39.45;;;15.45;;
30533;SDS011;17318;52.390;9.754;2023-02-22T00:29:43;42.75;;;17.02;;
30533;SDS011;17318;52.390;9.754;2023-02-22T00:32:10;40.88;;;16.48;;
30533;SDS011;17318;52.390;9.754;2023-02-22T00:34:36;42.00;;;16.05;;
30533;SDS011;17318;52.390;9.754;2023-02-22T00:37:02;45.28;;;16.45;;
30533;SDS011;17318;52.390;9.754;2023-02-22T00:39:28;42.08;;;17.00;;
30533;SDS011;17318;52.390;9.754;2023-02-22T00:41:55;34.45;;;14.18;;
30533;SDS011;17318;52.390;9.754;2023-02-22T00:44:20;39.53;;;16.08;;
30533;SDS011;17318;52.390;9.754;2023-02-22T00:46:46;38.47;;;15.05;;
30533;SDS011;17318;52.390;9.754;2023-02-22T00:49:14;41.75;;;16.17;;
30533;SDS011;17318;52.390;9.754;2023-02-22T00:51:40;40.05;;;15.73;;
30533;SDS011;17318;52.390;9.754;2023-02-22T00:54:06;43.30;;;15.20;;
30533;SDS011;17318;52.390;9.754;2023-02-22T00:56:32;43.63;;;16.38;;
30533;SDS011;17318;52.390;9.754;2023-02-22T00:58:58;41.80;;;16.35;;
30533;SDS011;17318;52.390;9.754;2023-02-22T01:01:25;36.60;;;14.73;;
30533;SDS011;17318;52.390;9.754;2023-02-22T01:03:51;36.10;;;15.18;;
30533;SDS011;17318;52.390;9.754;2023-02-22T01:06:17;38.72;;;15.57;;
30533;SDS011;17318;52.390;9.754;2023-02-22T01:08:44;39.80;;;15.57;;
30533;SDS011;17318;52.390;9.754;2023-02-22T01:11:10;38.72;;;14.93;;
30533;SDS011;17318;52.390;9.754;2023-02-22T01:13:36;36.25;;;15.98;;
30533;SDS011;17318;52.390;9.754;2023-02-22T01:16:03;38.55;;;15.25;;
30533;SDS011;17318;52.390;9.754;2023-02-22T01:18:35;36.50;;;15.07;;
30533;SDS011;17318;52.390;9.754;2023-02-22T01:21:04;44.78;;;16.33;;
30533;SDS011;17318;52.390;9.754;2023-02-22T01:23:30;41.03;;;16.25;;
30533;SDS011;17318;52.390;9.754;2023-02-22T01:25:56;43.25;;;16.15;;
30533;SDS011;17318;52.390;9.754;2023-02-22T01:28:22;40.88;;;15.77;;
30533;SDS011;17318;52.390;9.754;2023-02-22T01:30:48;46.92;;;16.95;;
30533;SDS011;17318;52.390;9.754;2023-02-22T01:33:14;44.17;;;16.17;;
30533;SDS011;17318;52.390;9.754;2023-02-22T01:35:40;42.83;;;17.30;;
30533;SDS011;17318;52.390;9.754;2023-02-22T01:38:08;34.72;;;14.57;;
30533;SDS011;17318;52.390;9.754;2023-02-22T01:40:36;33.83;;;14.85;;
30533;SDS011;17318;52.390;9.754;2023-02-22T01:51:02;41.35;;;14.73;;
30533;SDS011;17318;52.390;9.754;2023-02-22T01:53:38;39.45;;;15.10;;
30533;SDS011;17318;52.390;9.754;2023-02-22T01:56:38;38.75;;;15.63;;
30533;SDS011;17318;52.390;9.754;2023-02-22T01:59:09;38.13;;;15.48;;
30533;SDS011;17318;52.390;9.754;2023-02-22T02:01:37;37.85;;;14.85;;
30533;SDS011;17318;52.390;9.754;2023-02-22T02:04:08;35.30;;;13.77;;
30533;SDS011;17318;52.390;9.754;2023-02-22T02:06:50;38.63;;;15.25;;
30533;SDS011;17318;52.390;9.754;2023-02-22T02:09:38;43.55;;;16.35;;
30533;SDS011;17318;52.390;9.754;2023-02-22T02:12:22;36.55;;;14.27;;
30533;SDS011;17318;52.390;9.754;2023-02-22T02:14:48;39.33;;;14.88;;
30533;SDS011;17318;52.390;9.754;2023-02-22T02:17:14;36.35;;;13.90;;
30533;SDS011;17318;52.390;9.754;2023-02-22T02:34:02;39.53;;;14.48;;
30533;SDS011;17318;52.390;9.754;2023-02-22T02:39:16;42.50;;;16.25;;
30533;SDS011;17318;52.390;9.754;2023-02-22T02:41:51;37.80;;;13.60;;
30533;SDS011;17318;52.390;9.754;2023-02-22T02:44:21;42.45;;;14.68;;
30533;SDS011;17318;52.390;9.754;2023-02-22T02:47:19;39.30;;;14.02;;
30533;SDS011;17318;52.390;9.754;2023-02-22T02:52:42;39.95;;;14.70;;
30533;SDS011;17318;52.390;9.754;2023-02-22T02:55:10;41.33;;;14.93;;
30533;SDS011;17318;52.390;9.754;2023-02-22T02:57:37;41.88;;;14.75;;
30533;SDS011;17318;52.390;9.754;2023-02-22T03:00:03;39.83;;;14.65;;
30533;SDS011;17318;52.390;9.754;2023-02-22T03:03:05;44.35;;;14.90;;
30533;SDS011;17318;52.390;9.754;2023-02-22T03:08:52;55.17;;;16.33;;
30533;SDS011;17318;52.390;9.754;2023-02-22T03:11:28;37.40;;;14.13;;
30533;SDS011;17318;52.390;9.754;2023-02-22T03:16:55;44.38;;;14.80;;
30533;SDS011;17318;52.390;9.754;2023-02-22T03:19:29;40.28;;;15.60;;
30533;SDS011;17318;52.390;9.754;2023-02-22T03:30:08;37.85;;;14.30;;
30533;SDS011;17318;52.390;9.754;2023-02-22T03:32:37;44.40;;;14.88;;
30533;SDS011;17318;52.390;9.754;2023-02-22T03:35:10;39.35;;;14.00;;
30533;SDS011;17318;52.390;9.754;2023-02-22T03:37:41;50.83;;;17.30;;
30533;SDS011;17318;52.390;9.754;2023-02-22T03:40:12;37.58;;;13.23;;
30533;SDS011;17318;52.390;9.754;2023-02-22T03:42:45;37.40;;;14.57;;
30533;SDS011;17318;52.390;9.754;2023-02-22T03:45:15;43.25;;;15.93;;
30533;SDS011;17318;52.390;9.754;2023-02-22T03:47:46;36.03;;;14.13;;
30533;SDS011;17318;52.390;9.754;2023-02-22T03:50:16;37.97;;;13.48;;
30533;SDS011;17318;52.390;9.754;2023-02-22T03:52:45;36.40;;;13.07;;
30533;SDS011;17318;52.390;9.754;2023-02-22T03:55:12;38.70;;;13.98;;
30533;SDS011;17318;52.390;9.754;2023-02-22T03:57:45;40.67;;;14.23;;
30533;SDS011;17318;52.390;9.754;2023-02-22T04:00:16;37.78;;;14.52;;
30533;SDS011;17318;52.390;9.754;2023-02-22T04:02:44;40.58;;;14.65;;
30533;SDS011;17318;52.390;9.754;2023-02-22T04:05:10;35.05;;;13.23;;
30533;SDS011;17318;52.390;9.754;2023-02-22T04:07:38;40.38;;;14.75;;
30533;SDS011;17318;52.390;9.754;2023-02-22T04:10:06;36.35;;;13.77;;
30533;SDS011;17318;52.390;9.754;2023-02-22T04:12:33;40.70;;;15.00;;
30533;SDS011;17318;52.390;9.754;2023-02-22T04:15:00;38.17;;;14.40;;
30533;SDS011;17318;52.390;9.754;2023-02-22T04:17:26;46.47;;;15.27;;
30533;SDS011;17318;52.390;9.754;2023-02-22T04:19:52;42.83;;;14.75;;
30533;SDS011;17318;52.390;9.754;2023-02-22T04:22:18;42.83;;;15.50;;
30533;SDS011;17318;52.390;9.754;2023-02-22T04:24:43;40.55;;;15.63;;
30533;SDS011;17318;52.390;9.754;2023-02-22T04:27:09;37.03;;;14.00;;
30533;SDS011;17318;52.390;9.754;2023-02-22T04:29:35;37.88;;;14.25;;
30533;SDS011;17318;52.390;9.754;2023-02-22T04:32:01;35.72;;;14.35;;
30533;SDS011;17318;52.390;9.754;2023-02-22T04:34:26;40.15;;;14.75;;
30533;SDS011;17318;52.390;9.754;2023-02-22T04:36:52;45.40;;;15.48;;
30533;SDS011;17318;52.390;9.754;2023-02-22T04:39:17;35.10;;;12.63;;
30533;SDS011;17318;52.390;9.754;2023-02-22T04:41:43;36.47;;;14.32;;
30533;SDS011;17318;52.390;9.754;2023-02-22T04:44:09;42.47;;;15.00;;
30533;SDS011;17318;52.390;9.754;2023-02-22T04:46:34;39.55;;;14.75;;
30533;SDS011;17318;52.390;9.754;2023-02-22T04:49:00;32.53;;;12.93;;
30533;SDS011;17318;52.390;9.754;2023-02-22T04:51:25;40.92;;;14.98;;
30533;SDS011;17318;52.390;9.754;2023-02-22T04:53:51;39.35;;;14.93;;
30533;SDS011;17318;52.390;9.754;2023-02-22T04:56:17;35.33;;;13.57;;
30533;SDS011;17318;52.390;9.754;2023-02-22T04:58:43;37.90;;;13.30;;
30533;SDS011;17318;52.390;9.754;2023-02-22T05:01:09;36.88;;;14.05;;
30533;SDS011;17318;52.390;9.754;2023-02-22T05:03:38;41.00;;;14.32;;
30533;SDS011;17318;52.390;9.754;2023-02-22T05:06:04;39.20;;;14.48;;
30533;SDS011;17318;52.390;9.754;2023-02-22T05:08:30;37.70;;;15.07;;
30533;SDS011;17318;52.390;9.754;2023-02-22T05:10:56;40.17;;;14.10;;
30533;SDS011;17318;52.390;9.754;2023-02-22T05:13:21;34.83;;;13.35;;
30533;SDS011;17318;52.390;9.754;2023-02-22T05:15:47;40.13;;;14.45;;
30533;SDS011;17318;52.390;9.754;2023-02-22T05:18:13;34.67;;;13.60;;
30533;SDS011;17318;52.390;9.754;2023-02-22T05:20:39;38.00;;;13.70;;
30533;SDS011;17318;52.390;9.754;2023-02-22T05:23:05;40.58;;;14.85;;
30533;SDS011;17318;52.390;9.754;2023-02-22T05:25:31;33.15;;;12.48;;
30533;SDS011;17318;52.390;9.754;2023-02-22T05:27:58;38.03;;;13.50;;
30533;SDS011;17318;52.390;9.754;2023-02-22T05:30:31;41.13;;;14.63;;
30533;SDS011;17318;52.390;9.754;2023-02-22T05:32:58;33.05;;;13.90;;
30533;SDS011;17318;52.390;9.754;2023-02-22T05:35:24;34.63;;;13.05;;
30533;SDS011;17318;52.390;9.754;2023-02-22T05:37:50;32.40;;;13.40;;
30533;SDS011;17318;52.390;9.754;2023-02-22T05:40:18;30.02;;;12.30;;
30533;SDS011;17318;52.390;9.754;2023-02-22T05:42:45;42.92;;;15.10;;
30533;SDS011;17318;52.390;9.754;2023-02-22T05:45:11;28.80;;;12.30;;
30533;SDS011;17318;52.390;9.754;2023-02-22T05:47:38;35.30;;;12.63;;
30533;SDS011;17318;52.390;9.754;2023-02-22T05:50:04;35.65;;;12.38;;
30533;SDS011;17318;52.390;9.754;2023-02-22T05:52:30;29.63;;;12.00;;
30533;SDS011;17318;52.390;9.754;2023-02-22T05:54:56;33.67;;;12.02;;
30533;SDS011;17318;52.390;9.754;2023-02-22T05:57:22;32.60;;;13.52;;
30533;SDS011;17318;52.390;9.754;2023-02-22T05:59:47;34.03;;;12.45;;
30533;SDS011;17318;52.390;9.754;2023-02-22T06:02:13;30.05;;;12.23;;
30533;SDS011;17318;52.390;9.754;2023-02-22T06:04:39;37.78;;;12.82;;
30533;SDS011;17318;52.390;9.754;2023-02-22T06:07:07;32.55;;;12.20;;
30533;SDS011;17318;52.390;9.754;2023-02-22T06:09:33;31.33;;;11.90;;
30533;SDS011;17318;52.390;9.754;2023-02-22T06:11:59;31.88;;;12.65;;
30533;SDS011;17318;52.390;9.754;2023-02-22T06:14:24;30.77;;;11.88;;
30533;SDS011;17318;52.390;9.754;2023-02-22T06:16:53;37.83;;;12.40;;
30533;SDS011;17318;52.390;9.754;2023-02-22T06:19:20;26.92;;;11.25;;
30533;SDS011;17318;52.390;9.754;2023-02-22T06:21:53;28.65;;;11.93;;
30533;SDS011;17318;52.390;9.754;2023-02-22T06:24:21;27.75;;;11.77;;
30533;SDS011;17318;52.390;9.754;2023-02-22T06:26:53;32.13;;;12.18;;
30533;SDS011;17318;52.390;9.754;2023-02-22T06:29:21;30.92;;;12.32;;
30533;SDS011;17318;52.390;9.754;2023-02-22T06:31:48;31.67;;;12.40;;
30533;SDS011;17318;52.390;9.754;2023-02-22T06:34:14;30.42;;;11.73;;
30533;SDS011;17318;52.390;9.754;2023-02-22T06:36:39;29.88;;;11.57;;
30533;SDS011;17318;52.390;9.754;2023-02-22T06:39:06;32.20;;;11.65;;
30533;SDS011;17318;52.390;9.754;2023-02-22T06:41:38;31.10;;;12.38;;
30533;SDS011;17318;52.390;9.754;2023-02-22T06:44:04;28.42;;;11.88;;
30533;SDS011;17318;52.390;9.754;2023-02-22T06:46:30;31.08;;;11.88;;
30533;SDS011;17318;52.390;9.754;2023-02-22T06:48:56;28.42;;;11.50;;
30533;SDS011;17318;52.390;9.754;2023-02-22T06:51:23;33.70;;;12.37;;
30533;SDS011;17318;52.390;9.754;2023-02-22T06:53:50;36.28;;;12.45;;
30533;SDS011;17318;52.390;9.754;2023-02-22T06:56:16;35.75;;;11.85;;
30533;SDS011;17318;52.390;9.754;2023-02-22T06:58:42;25.20;;;11.02;;
30533;SDS011;17318;52.390;9.754;2023-02-22T07:01:08;30.00;;;11.98;;
30533;SDS011;17318;52.390;9.754;2023-02-22T07:03:34;33.63;;;11.55;;
30533;SDS011;17318;52.390;9.754;2023-02-22T07:06:00;30.50;;;10.55;;
30533;SDS011;17318;52.390;9.754;2023-02-22T07:08:26;31.73;;;11.82;;
30533;SDS011;17318;52.390;9.754;2023-02-22T07:10:52;26.88;;;11.32;;
30533;SDS011;17318;52.390;9.754;2023-02-22T07:13:18;23.77;;;10.38;;
30533;SDS011;17318;52.390;9.754;2023-02-22T07:15:44;28.92;;;10.93;;
30533;SDS011;17318;52.390;9.754;2023-02-22T07:18:09;33.03;;;11.93;;
30533;SDS011;17318;52.390;9.754;2023-02-22T07:20:36;29.73;;;11.73;;
30533;SDS011;17318;52.390;9.754;2023-02-22T07:23:02;28.20;;;11.95;;
30533;SDS011;17318;52.390;9.754;2023-02-22T07:25:28;32.50;;;11.70;;
30533;SDS011;17318;52.390;9.754;2023-02-22T07:27:54;28.70;;;10.95;;
30533;SDS011;17318;52.390;9.754;2023-02-22T07:30:24;31.00;;;11.80;;
30533;SDS011;17318;52.390;9.754;2023-02-22T07:32:54;30.25;;;11.65;;
30533;SDS011;17318;52.390;9.754;2023-02-22T07:35:29;26.85;;;11.07;;
30533;SDS011;17318;52.390;9.754;2023-02-22T07:38:05;28.50;;;12.63;;
30533;SDS011;17318;52.390;9.754;2023-02-22T07:40:32;31.33;;;12.88;;
30533;SDS011;17318;52.390;9.754;2023-02-22T07:43:03;32.53;;;11.05;;
30533;SDS011;17318;52.390;9.754;2023-02-22T07:45:46;37.03;;;15.23;;
30533;SDS011;17318;52.390;9.754;2023-02-22T07:48:12;29.98;;;14.02;;
30533;SDS011;17318;52.390;9.754;2023-02-22T07:50:39;31.17;;;12.30;;
30533;SDS011;17318;52.390;9.754;2023-02-22T07:53:06;35.80;;;15.95;;
30533;SDS011;17318;52.390;9.754;2023-02-22T07:55:35;33.50;;;13.55;;
30533;SDS011;17318;52.390;9.754;2023-02-22T07:58:02;25.38;;;10.70;;
30533;SDS011;17318;52.390;9.754;2023-02-22T08:00:32;29.27;;;11.43;;
30533;SDS011;17318;52.390;9.754;2023-02-22T08:03:04;24.20;;;11.20;;
30533;SDS011;17318;52.390;9.754;2023-02-22T08:05:32;25.05;;;10.88;;
30533;SDS011;17318;52.390;9.754;2023-02-22T08:07:58;34.00;;;14.40;;
30533;SDS011;17318;52.390;9.754;2023-02-22T08:10:25;28.52;;;12.27;;
30533;SDS011;17318;52.390;9.754;2023-02-22T08:12:51;27.60;;;11.63;;
30533;SDS011;17318;52.390;9.754;2023-02-22T08:15:20;27.25;;;11.23;;
30533;SDS011;17318;52.390;9.754;2023-02-22T08:17:48;23.98;;;10.70;;
30533;SDS011;17318;52.390;9.754;2023-02-22T08:20:14;21.40;;;9.85;;
30533;SDS011;17318;52.390;9.754;2023-02-22T08:22:43;24.02;;;11.10;;
30533;SDS011;17318;52.390;9.754;2023-02-22T08:25:10;27.30;;;10.05;;
30533;SDS011;17318;52.390;9.754;2023-02-22T08:27:37;23.30;;;10.73;;
30533;SDS011;17318;52.390;9.754;2023-02-22T08:30:03;25.52;;;10.63;;
30533;SDS011;17318;52.390;9.754;2023-02-22T08:32:30;29.63;;;11.20;;
30533;SDS011;17318;52.390;9.754;2023-02-22T08:34:55;25.63;;;10.52;;
30533;SDS011;17318;52.390;9.754;2023-02-22T08:37:21;19.80;;;10.10;;
30533;SDS011;17318;52.390;9.754;2023-02-22T08:39:46;26.85;;;11.40;;
30533;SDS011;17318;52.390;9.754;2023-02-22T08:42:12;24.60;;;11.73;;
30533;SDS011;17318;52.390;9.754;2023-02-22T08:44:38;24.48;;;11.43;;
30533;SDS011;17318;52.390;9.754;2023-02-22T08:47:04;24.25;;;11.18;;
30533;SDS011;17318;52.390;9.754;2023-02-22T08:49:31;33.83;;;14.52;;
30533;SDS011;17318;52.390;9.754;2023-02-22T08:51:57;28.65;;;11.73;;
30533;SDS011;17318;52.390;9.754;2023-02-22T08:54:22;31.77;;;13.18;;
30533;SDS011;17318;52.390;9.754;2023-02-22T08:56:48;27.80;;;12.55;;
30533;SDS011;17318;52.390;9.754;2023-02-22T08:59:15;26.27;;;11.40;;
30533;SDS011;17318;52.390;9.754;2023-02-22T09:01:41;29.98;;;11.70;;
30533;SDS011;17318;52.390;9.754;2023-02-22T09:04:07;25.88;;;12.40;;
30533;SDS011;17318;52.390;9.754;2023-02-22T09:06:32;24.60;;;11.77;;
30533;SDS011;17318;52.390;9.754;2023-02-22T09:08:58;30.05;;;12.68;;
30533;SDS011;17318;52.390;9.754;2023-02-22T09:11:24;27.58;;;12.35;;
30533;SDS011;17318;52.390;9.754;2023-02-22T09:13:49;24.88;;;11.73;;
30533;SDS011;17318;52.390;9.754;2023-02-22T09:16:15;23.60;;;11.48;;
30533;SDS011;17318;52.390;9.754;2023-02-22T09:18:41;26.45;;;11.38;;
30533;SDS011;17318;52.390;9.754;2023-02-22T09:21:06;25.35;;;11.35;;
30533;SDS011;17318;52.390;9.754;2023-02-22T09:23:32;23.80;;;11.57;;
30533;SDS011;17318;52.390;9.754;2023-02-22T09:25:58;29.38;;;12.18;;
30533;SDS011;17318;52.390;9.754;2023-02-22T09:28:25;28.50;;;13.38;;
30533;SDS011;17318;52.390;9.754;2023-02-22T09:30:51;27.85;;;12.45;;
30533;SDS011;17318;52.390;9.754;2023-02-22T09:33:17;21.83;;;10.32;;
30533;SDS011;17318;52.390;9.754;2023-02-22T09:35:45;24.00;;;11.88;;
30533;SDS011;17318;52.390;9.754;2023-02-22T09:38:14;25.48;;;10.88;;
30533;SDS011;17318;52.390;9.754;2023-02-22T09:40:53;25.83;;;12.40;;
30533;SDS011;17318;52.390;9.754;2023-02-22T09:46:21;28.38;;;11.73;;
30533;SDS011;17318;52.390;9.754;2023-02-22T09:54:34;26.83;;;12.32;;
30533;SDS011;17318;52.390;9.754;2023-02-22T09:57:06;21.65;;;11.43;;
30533;SDS011;17318;52.390;9.754;2023-02-22T09:59:38;25.02;;;12.32;;
30533;SDS011;17318;52.390;9.754;2023-02-22T10:02:15;25.42;;;12.38;;
30533;SDS011;17318;52.390;9.754;2023-02-22T10:04:46;26.10;;;12.98;;
30533;SDS011;17318;52.390;9.754;2023-02-22T10:07:25;25.05;;;13.43;;
30533;SDS011;17318;52.390;9.754;2023-02-22T10:09:55;29.63;;;12.85;;
30533;SDS011;17318;52.390;9.754;2023-02-22T10:12:25;24.60;;;11.98;;
30533;SDS011;17318;52.390;9.754;2023-02-22T10:18:16;24.13;;;11.68;;
30533;SDS011;17318;52.390;9.754;2023-02-22T10:23:24;32.80;;;15.52;;
30533;SDS011;17318;52.390;9.754;2023-02-22T10:26:20;22.70;;;12.32;;
30533;SDS011;17318;52.390;9.754;2023-02-22T10:31:33;23.98;;;11.90;;
30533;SDS011;17318;52.390;9.754;2023-02-22T10:34:08;22.40;;;11.13;;
30533;SDS011;17318;52.390;9.754;2023-02-22T10:36:48;22.95;;;11.20;;
30533;SDS011;17318;52.390;9.754;2023-02-22T10:39:35;20.08;;;10.57;;
30533;SDS011;17318;52.390;9.754;2023-02-22T10:42:04;21.85;;;10.93;;
30533;SDS011;17318;52.390;9.754;2023-02-22T10:44:35;26.70;;;11.80;;
30533;SDS011;17318;52.390;9.754;2023-02-22T10:47:05;21.08;;;10.93;;
30533;SDS011;17318;52.390;9.754;2023-02-22T10:49:48;23.73;;;11.63;;
30533;SDS011;17318;52.390;9.754;2023-02-22T10:52:29;20.85;;;11.70;;
30533;SDS011;17318;52.390;9.754;2023-02-22T10:54:59;23.40;;;12.23;;
30533;SDS011;17318;52.390;9.754;2023-02-22T10:57:32;27.35;;;13.00;;
30533;SDS011;17318;52.390;9.754;2023-02-22T11:02:53;22.85;;;12.35;;
30533;SDS011;17318;52.390;9.754;2023-02-22T11:08:42;23.40;;;12.32;;
30533;SDS011;17318;52.390;9.754;2023-02-22T11:10:54;20.63;;;10.98;;
30533;SDS011;17318;52.390;9.754;2023-02-22T11:15:59;22.95;;;11.88;;
30533;SDS011;17318;52.390;9.754;2023-02-22T11:18:46;25.98;;;11.32;;
30533;SDS011;17318;52.390;9.754;2023-02-22T11:21:12;16.17;;;10.27;;
30533;SDS011;17318;52.390;9.754;2023-02-22T11:23:46;21.17;;;10.85;;
30533;SDS011;17318;52.390;9.754;2023-02-22T11:26:15;24.52;;;10.90;;
30533;SDS011;17318;52.390;9.754;2023-02-22T11:28:48;23.65;;;11.27;;
30533;SDS011;17318;52.390;9.754;2023-02-22T11:31:26;23.85;;;12.07;;
30533;SDS011;17318;52.390;9.754;2023-02-22T11:33:54;18.30;;;10.02;;
30533;SDS011;17318;52.390;9.754;2023-02-22T11:36:29;18.95;;;10.18;;
30533;SDS011;17318;52.390;9.754;2023-02-22T11:39:26;23.58;;;11.45;;
30533;SDS011;17318;52.390;9.754;2023-02-22T11:41:52;20.43;;;10.80;;
30533;SDS011;17318;52.390;9.754;2023-02-22T11:44:27;23.90;;;10.32;;
30533;SDS011;17318;52.390;9.754;2023-02-22T11:46:55;21.50;;;10.85;;
30533;SDS011;17318;52.390;9.754;2023-02-22T11:49:34;21.98;;;11.05;;
30533;SDS011;17318;52.390;9.754;2023-02-22T11:55:11;27.30;;;13.32;;
30533;SDS011;17318;52.390;9.754;2023-02-22T11:58:00;22.23;;;11.30;;
30533;SDS011;17318;52.390;9.754;2023-02-22T12:00:52;24.30;;;12.18;;
30533;SDS011;17318;52.390;9.754;2023-02-22T12:21:48;25.77;;;10.38;;
30533;SDS011;17318;52.390;9.754;2023-02-22T12:24:23;25.00;;;11.55;;
30533;SDS011;17318;52.390;9.754;2023-02-22T12:26:54;21.65;;;10.98;;
30533;SDS011;17318;52.390;9.754;2023-02-22T12:29:33;18.42;;;10.30;;
30533;SDS011;17318;52.390;9.754;2023-02-22T12:34:58;29.38;;;16.00;;
30533;SDS011;17318;52.390;9.754;2023-02-22T12:50:57;17.15;;;8.95;;
30533;SDS011;17318;52.390;9.754;2023-02-22T12:53:48;20.98;;;9.63;;
30533;SDS011;17318;52.390;9.754;2023-02-22T12:56:47;25.88;;;9.50;;
30533;SDS011;17318;52.390;9.754;2023-02-22T13:04:40;18.48;;;9.90;;
30533;SDS011;17318;52.390;9.754;2023-02-22T13:12:23;18.73;;;7.82;;
30533;SDS011;17318;52.390;9.754;2023-02-22T13:23:02;13.93;;;6.88;;
30533;SDS011;17318;52.390;9.754;2023-02-22T13:30:43;14.52;;;6.38;;
30533;SDS011;17318;52.390;9.754;2023-02-22T13:33:40;13.38;;;6.50;;
30533;SDS011;17318;52.390;9.754;2023-02-22T13:36:21;12.75;;;6.45;;
30533;SDS011;17318;52.390;9.754;2023-02-22T13:39:16;14.48;;;6.03;;
30533;SDS011;17318;52.390;9.754;2023-02-22T13:53:08;14.23;;;7.32;;
30533;SDS011;17318;52.390;9.754;2023-02-22T13:55:39;26.98;;;11.00;;
30533;SDS011;17318;52.390;9.754;2023-02-22T13:58:08;17.13;;;7.10;;
30533;SDS011;17318;52.390;9.754;2023-02-22T14:08:07;16.67;;;8.35;;
30533;SDS011;17318;52.390;9.754;2023-02-22T14:10:56;17.02;;;6.93;;
30533;SDS011;17318;52.390;9.754;2023-02-22T14:13:23;14.05;;;7.82;;
30533;SDS011;17318;52.390;9.754;2023-02-22T14:18:24;19.92;;;8.20;;
30533;SDS011;17318;52.390;9.754;2023-02-22T14:21:09;25.42;;;8.18;;
30533;SDS011;17318;52.390;9.754;2023-02-22T14:34:02;15.73;;;7.80;;
30533;SDS011;17318;52.390;9.754;2023-02-22T14:39:18;14.18;;;6.50;;
30533;SDS011;17318;52.390;9.754;2023-02-22T14:41:52;15.30;;;6.90;;
30533;SDS011;17318;52.390;9.754;2023-02-22T14:44:26;15.93;;;7.50;;
30533;SDS011;17318;52.390;9.754;2023-02-22T14:47:01;12.98;;;6.45;;
30533;SDS011;17318;52.390;9.754;2023-02-22T14:49:30;13.40;;;7.68;;
30533;SDS011;17318;52.390;9.754;2023-02-22T14:52:01;12.05;;;6.70;;
30533;SDS011;17318;52.390;9.754;2023-02-22T14:54:32;11.60;;;6.70;;
30533;SDS011;17318;52.390;9.754;2023-02-22T14:57:10;13.45;;;6.05;;
30533;SDS011;17318;52.390;9.754;2023-02-22T14:59:46;17.05;;;6.10;;
30533;SDS011;17318;52.390;9.754;2023-02-22T15:02:21;19.20;;;7.05;;
30533;SDS011;17318;52.390;9.754;2023-02-22T15:04:50;17.25;;;5.95;;
30533;SDS011;17318;52.390;9.754;2023-02-22T15:07:23;16.63;;;5.90;;
30533;SDS011;17318;52.390;9.754;2023-02-22T15:09:52;12.32;;;5.72;;
30533;SDS011;17318;52.390;9.754;2023-02-22T15:12:41;17.02;;;6.68;;
30533;SDS011;17318;52.390;9.754;2023-02-22T15:15:17;14.63;;;6.15;;
30533;SDS011;17318;52.390;9.754;2023-02-22T15:17:46;12.60;;;5.88;;
30533;SDS011;17318;52.390;9.754;2023-02-22T15:20:19;17.20;;;6.85;;
30533;SDS011;17318;52.390;9.754;2023-02-22T15:22:46;13.00;;;7.20;;
30533;SDS011;17318;52.390;9.754;2023-02-22T15:25:13;16.77;;;7.28;;
30533;SDS011;17318;52.390;9.754;2023-02-22T15:27:39;13.63;;;6.18;;
30533;SDS011;17318;52.390;9.754;2023-02-22T15:30:18;13.90;;;6.78;;
30533;SDS011;17318;52.390;9.754;2023-02-22T15:32:51;16.58;;;8.68;;
30533;SDS011;17318;52.390;9.754;2023-02-22T15:37:58;16.48;;;6.43;;
30533;SDS011;17318;52.390;9.754;2023-02-22T15:40:33;15.63;;;6.90;;
30533;SDS011;17318;52.390;9.754;2023-02-22T15:43:00;13.10;;;5.97;;
30533;SDS011;17318;52.390;9.754;2023-02-22T15:45:28;10.60;;;6.13;;
30533;SDS011;17318;52.390;9.754;2023-02-22T15:47:56;10.98;;;5.80;;
30533;SDS011;17318;52.390;9.754;2023-02-22T15:52:58;16.02;;;6.60;;
30533;SDS011;17318;52.390;9.754;2023-02-22T15:55:33;9.88;;;5.60;;
30533;SDS011;17318;52.390;9.754;2023-02-22T15:58:06;16.08;;;6.25;;
30533;SDS011;17318;52.390;9.754;2023-02-22T16:00:35;12.48;;;6.50;;
30533;SDS011;17318;52.390;9.754;2023-02-22T16:03:04;18.20;;;6.50;;
30533;SDS011;17318;52.390;9.754;2023-02-22T16:05:47;11.60;;;6.10;;
30533;SDS011;17318;52.390;9.754;2023-02-22T16:08:17;14.65;;;6.78;;
30533;SDS011;17318;52.390;9.754;2023-02-22T16:11:09;13.82;;;6.50;;
30533;SDS011;17318;52.390;9.754;2023-02-22T16:13:41;19.08;;;7.00;;
30533;SDS011;17318;52.390;9.754;2023-02-22T16:18:49;14.00;;;7.00;;
30533;SDS011;17318;52.390;9.754;2023-02-22T16:21:18;12.77;;;6.87;;
30533;SDS011;17318;52.390;9.754;2023-02-22T16:23:52;12.75;;;6.03;;
30533;SDS011;17318;52.390;9.754;2023-02-22T16:28:58;21.23;;;6.28;;
30533;SDS011;17318;52.390;9.754;2023-02-22T16:31:36;19.23;;;7.25;;
30533;SDS011;17318;52.390;9.754;2023-02-22T16:34:04;16.52;;;6.50;;
30533;SDS011;17318;52.390;9.754;2023-02-22T16:39:18;13.30;;;5.38;;
30533;SDS011;17318;52.390;9.754;2023-02-22T16:41:55;11.85;;;6.45;;
30533;SDS011;17318;52.390;9.754;2023-02-22T16:46:50;18.75;;;6.85;;
30533;SDS011;17318;52.390;9.754;2023-02-22T16:49:20;13.05;;;7.05;;
30533;SDS011;17318;52.390;9.754;2023-02-22T16:51:51;16.80;;;7.07;;
30533;SDS011;17318;52.390;9.754;2023-02-22T16:54:23;20.55;;;6.90;;
30533;SDS011;17318;52.390;9.754;2023-02-22T16:56:53;13.05;;;5.95;;
30533;SDS011;17318;52.390;9.754;2023-02-22T16:59:20;11.55;;;6.20;;
30533;SDS011;17318;52.390;9.754;2023-02-22T17:01:47;9.90;;;5.40;;
30533;SDS011;17318;52.390;9.754;2023-02-22T17:04:14;13.00;;;6.25;;
30533;SDS011;17318;52.390;9.754;2023-02-22T17:06:42;16.75;;;5.88;;
30533;SDS011;17318;52.390;9.754;2023-02-22T17:09:08;17.02;;;6.10;;
30533;SDS011;17318;52.390;9.754;2023-02-22T17:11:34;23.30;;;9.10;;
30533;SDS011;17318;52.390;9.754;2023-02-22T17:14:01;23.15;;;9.30;;
30533;SDS011;17318;52.390;9.754;2023-02-22T17:16:26;18.38;;;6.82;;
30533;SDS011;17318;52.390;9.754;2023-02-22T17:18:52;17.10;;;6.18;;
30533;SDS011;17318;52.390;9.754;2023-02-22T17:21:18;18.38;;;7.05;;
30533;SDS011;17318;52.390;9.754;2023-02-22T17:23:44;20.77;;;9.30;;
30533;SDS011;17318;52.390;9.754;2023-02-22T17:26:11;17.50;;;7.50;;
30533;SDS011;17318;52.390;9.754;2023-02-22T17:28:38;21.80;;;6.53;;
30533;SDS011;17318;52.390;9.754;2023-02-22T17:31:04;20.23;;;6.45;;
30533;SDS011;17318;52.390;9.754;2023-02-22T17:33:32;12.52;;;5.65;;
30533;SDS011;17318;52.390;9.754;2023-02-22T17:36:01;14.80;;;5.75;;
30533;SDS011;17318;52.390;9.754;2023-02-22T17:38:29;12.63;;;5.70;;
30533;SDS011;17318;52.390;9.754;2023-02-22T17:40:56;15.23;;;6.90;;